Time;durP1;ratioP1;P1;durP2;ratioP2;P2;SDS_P1;SDS_P2;PMS_P1;PMS_P2;Temp;Humidity;BMP_temperature;BMP_pressure;BME280_temperature;BME280_humidity;BME280_pressure;Samples;Min_cycle;Max_cycle;Signal;HPM_P1;HPM_P2
2023/06/19 00:00:00;;;;;;;7.05;6.35;;;;;;;24.60;50.27;99724.25;10299033;28;20050;-69
2023/06/19 00:05:01;;;;;;;7.82;6.43;;;;;;;24.54;50.02;99717.94;10297236;28;20050;-69
2023/06/19 00:10:04;;;;;;;6.75;6.05;;;;;;;24.36;50.17;99707.59;10302323;28;20051;-67
2023/06/19 00:15:07;;;;;;;7.18;6.05;;;;;;;24.41;50.68;99696.59;10286552;28;20058;-70
2023/06/19 00:20:09;;;;;;;7.82;6.00;;;;;;;24.39;50.58;99692.47;10288978;28;20453;-68
2023/06/19 00:25:11;;;;;;;7.25;6.28;;;;;;;24.25;50.45;99686.78;10303799;28;20051;-67
2023/06/19 00:30:12;;;;;;;7.63;5.90;;;;;;;24.26;50.52;99692.00;10299652;28;20054;-69
2023/06/19 00:35:15;;;;;;;7.10;6.40;;;;;;;24.35;50.46;99687.56;10299629;28;20525;-68
2023/06/19 00:40:30;;;;;;;10.38;7.30;;;;;;;24.38;50.85;99686.16;10296417;28;20042;-69
2023/06/19 00:45:32;;;;;;;8.07;7.38;;;;;;;24.34;50.96;99679.59;10306658;28;20152;-69
2023/06/19 00:50:33;;;;;;;6.82;6.00;;;;;;;24.28;50.99;99680.72;10302297;28;20612;-69
2023/06/19 00:55:36;;;;;;;8.57;6.53;;;;;;;24.20;51.30;99673.91;10304839;28;20046;-68
2023/06/19 01:00:37;;;;;;;8.48;6.75;;;;;;;24.11;51.16;99676.44;10303717;28;20052;-69
2023/06/19 01:05:39;;;;;;;7.05;6.28;;;;;;;23.99;51.67;99677.84;10299625;28;20053;-70
2023/06/19 01:10:48;;;;;;;7.53;6.45;;;;;;;23.90;51.63;99685.88;10300685;28;20783;-71
2023/06/19 01:15:50;;;;;;;8.20;7.18;;;;;;;23.90;51.45;99689.41;10312864;28;20042;-71
2023/06/19 01:20:51;;;;;;;6.80;6.10;;;;;;;23.85;51.77;99691.38;10304759;28;20053;-72
2023/06/19 01:25:53;;;;;;;8.50;7.60;;;;;;;23.82;51.86;99686.44;10320728;28;20050;-72
2023/06/19 01:30:58;;;;;;;8.25;6.90;;;;;;;23.53;52.77;99679.63;10300421;28;20075;-72
2023/06/19 01:36:03;;;;;;;9.33;6.70;;;;;;;23.23;52.92;99694.22;10314342;28;20069;-71
2023/06/19 01:41:06;;;;;;;8.35;6.28;;;;;;;23.23;52.39;99677.78;10302718;28;20046;-69
2023/06/19 01:46:08;;;;;;;11.55;6.60;;;;;;;23.39;52.36;99675.81;10315160;28;20051;-70
2023/06/19 01:51:10;;;;;;;7.45;6.60;;;;;;;23.13;52.51;99700.53;10317973;28;20610;-71
2023/06/19 01:56:12;;;;;;;7.50;6.75;;;;;;;23.06;52.42;99705.47;10322995;28;20050;-69
2023/06/19 02:01:13;;;;;;;8.52;6.10;;;;;;;23.23;51.60;99716.16;10302234;28;20075;-71
2023/06/19 02:06:15;;;;;;;7.30;6.00;;;;;;;23.36;51.55;99712.88;10306581;28;20523;-71
2023/06/19 02:11:16;;;;;;;8.52;6.03;;;;;;;23.50;51.52;99699.41;10330838;28;20059;-71
2023/06/19 02:16:18;;;;;;;6.82;6.22;;;;;;;23.58;51.60;99697.16;10332498;28;20065;-70
2023/06/19 02:21:19;;;;;;;9.88;6.88;;;;;;;23.52;51.86;99702.69;10329500;28;20062;-72
2023/06/19 02:26:21;;;;;;;7.93;6.28;;;;;;;23.53;51.92;99707.06;10312066;28;20054;-72
2023/06/19 02:31:23;;;;;;;9.10;7.03;;;;;;;23.49;52.01;99702.41;10315641;28;20126;-71
2023/06/19 02:36:24;;;;;;;9.43;6.38;;;;;;;23.39;52.32;99706.00;10317603;28;20053;-72
2023/06/19 02:41:25;;;;;;;9.32;6.90;;;;;;;23.29;52.44;99725.22;10310554;28;20051;-74
2023/06/19 02:46:27;;;;;;;7.72;6.22;;;;;;;22.95;53.07;99758.66;10320796;28;20042;-70
2023/06/19 02:51:29;;;;;;;8.90;7.65;;;;;;;22.87;53.24;99757.25;10310706;28;20038;-73
2023/06/19 02:56:30;;;;;;;9.45;7.35;;;;;;;22.97;53.32;99756.44;10307759;28;20050;-70
2023/06/19 03:01:32;;;;;;;7.57;6.65;;;;;;;22.90;53.48;99766.84;10318871;28;20046;-72
2023/06/19 03:06:39;;;;;;;9.52;6.85;;;;;;;22.92;53.09;99760.00;10304039;28;20510;-72
2023/06/19 03:11:41;;;;;;;7.47;6.78;;;;;;;22.97;52.35;99760.00;10299474;28;20078;-71
2023/06/19 03:16:42;;;;;;;9.45;6.53;;;;;;;23.07;51.61;99761.16;10306200;28;20058;-64
2023/06/19 03:21:44;;;;;;;7.07;5.80;;;;;;;23.21;51.05;99764.16;10306971;28;20066;-62
2023/06/19 03:26:45;;;;;;;8.20;5.60;;;;;;;23.30;50.21;99782.56;10303978;28;20042;-64
2023/06/19 03:31:46;;;;;;;8.18;5.47;;;;;;;23.36;49.45;99781.44;10297586;28;20057;-63
2023/06/19 03:36:48;;;;;;;6.80;5.57;;;;;;;23.48;48.73;99780.31;10304986;28;20655;-64
2023/06/19 03:41:49;;;;;;;7.70;5.47;;;;;;;23.55;48.40;99784.44;10305873;28;20046;-63
2023/06/19 03:46:51;;;;;;;5.55;4.85;;;;;;;23.62;47.88;99794.31;10301239;28;20053;-62
2023/06/19 03:51:54;;;;;;;4.63;4.10;;;;;;;23.76;47.52;99803.63;10307734;28;20050;-64
2023/06/19 03:56:55;;;;;;;5.50;4.07;;;;;;;23.88;47.29;99803.38;10302880;28;20045;-63
2023/06/19 04:01:58;;;;;;;6.00;4.38;;;;;;;23.99;46.98;99809.66;10304494;28;20125;-63
2023/06/19 04:06:59;;;;;;;5.72;4.18;;;;;;;24.03;47.39;99811.56;10303271;28;20445;-64
2023/06/19 04:12:01;;;;;;;4.75;4.00;;;;;;;24.05;47.62;99825.84;10303197;28;20046;-64
2023/06/19 04:17:03;;;;;;;5.20;3.80;;;;;;;24.09;47.55;99846.16;10297611;28;20049;-63
2023/06/19 04:22:05;;;;;;;3.20;2.90;;;;;;;24.13;48.03;99838.16;10306991;28;20066;-63
2023/06/19 04:27:08;;;;;;;4.38;2.67;;;;;;;24.13;48.39;99847.25;10299806;28;20051;-64
2023/06/19 04:32:12;;;;;;;7.32;3.60;;;;;;;24.07;49.20;99855.75;10302562;28;20062;-63
2023/06/19 04:37:19;;;;;;;5.95;4.00;;;;;;;23.83;50.82;99859.09;10293611;28;20038;-63
2023/06/19 04:42:20;;;;;;;10.02;4.07;;;;;;;23.78;50.99;99863.78;10299820;28;20178;-63
2023/06/19 04:47:23;;;;;;;8.10;4.20;;;;;;;23.86;51.12;99872.28;10306737;28;20053;-65
2023/06/19 04:52:37;;;;;;;6.65;3.90;;;;;;;23.95;51.10;99883.50;10307266;28;20054;-64
2023/06/19 04:57:38;;;;;;;5.43;4.40;;;;;;;23.94;50.81;99890.13;10305197;28;20460;-64
2023/06/19 05:02:43;;;;;;;5.93;4.28;;;;;;;24.01;50.72;99887.06;10311577;28;20051;-65
2023/06/19 05:07:45;;;;;;;5.25;4.35;;;;;;;24.02;50.85;99905.22;10311620;28;20046;-65
2023/06/19 05:12:46;;;;;;;10.35;4.85;;;;;;;24.08;50.72;99891.19;10308640;28;20852;-64
2023/06/19 05:17:48;;;;;;;4.65;4.00;;;;;;;24.19;50.43;99903.00;10310025;28;20053;-63
2023/06/19 05:22:49;;;;;;;4.35;3.90;;;;;;;24.26;50.61;99898.00;10305774;28;20042;-63
2023/06/19 05:27:51;;;;;;;5.88;4.38;;;;;;;24.43;50.38;99894.16;10309285;28;20101;-65
2023/06/19 05:32:52;;;;;;;6.38;3.80;;;;;;;24.63;49.92;99896.84;10308936;28;20047;-64
2023/06/19 05:37:54;;;;;;;5.00;3.75;;;;;;;24.72;50.21;99895.16;10307588;28;20498;-65
2023/06/19 05:42:55;;;;;;;5.03;4.43;;;;;;;24.98;50.30;99896.94;10306606;28;20046;-65
2023/06/19 05:47:57;;;;;;;4.97;4.00;;;;;;;25.14;50.51;99893.84;10304997;28;20047;-64
2023/06/19 05:52:58;;;;;;;9.25;4.00;;;;;;;25.31;50.29;99887.16;10307774;28;20134;-62
2023/06/19 05:58:00;;;;;;;7.28;4.13;;;;;;;25.46;50.09;99908.25;10303489;28;20509;-64
2023/06/19 06:03:02;;;;;;;3.28;2.97;;;;;;;25.48;49.84;99906.84;10311498;28;20050;-64
2023/06/19 06:08:04;;;;;;;3.22;2.90;;;;;;;25.41;49.32;99914.59;10306154;28;20505;-64
2023/06/19 06:13:05;;;;;;;3.88;1.90;;;;;;;25.38;48.85;99915.19;10307201;28;20053;-64
2023/06/19 06:18:07;;;;;;;2.80;2.53;;;;;;;25.42;48.41;99923.69;10310381;28;20052;-67
2023/06/19 06:23:08;;;;;;;3.92;2.22;;;;;;;25.52;48.16;99940.16;10304016;28;20051;-64
2023/06/19 06:28:09;;;;;;;2.90;2.05;;;;;;;25.50;47.64;99940.41;10275768;28;20562;-62
2023/06/19 06:33:11;;;;;;;4.22;2.33;;;;;;;25.73;47.57;99940.78;10312836;28;20050;-63
2023/06/19 06:38:12;;;;;;;4.28;2.08;;;;;;;25.80;47.51;99946.81;10299451;28;20169;-64
2023/06/19 06:43:14;;;;;;;3.50;2.00;;;;;;;26.14;47.09;99946.00;10306190;28;20057;-63
2023/06/19 06:48:16;;;;;;;5.00;2.10;;;;;;;26.35;46.25;99949.38;10309149;28;20042;-63
2023/06/19 06:53:18;;;;;;;3.88;1.95;;;;;;;26.37;46.72;99938.88;10306917;28;20050;-65
2023/06/19 06:58:19;;;;;;;4.68;2.00;;;;;;;26.52;46.10;99929.63;10309510;28;20051;-66
2023/06/19 07:03:21;;;;;;;3.35;1.50;;;;;;;26.73;45.98;99943.22;10311287;28;20047;-66
2023/06/19 07:08:23;;;;;;;3.90;2.25;;;;;;;26.66;45.66;99949.91;10313776;28;20050;-65
2023/06/19 07:13:25;;;;;;;12.63;3.13;;;;;;;26.77;45.82;99942.31;10311648;28;20042;-67
2023/06/19 07:18:27;;;;;;;3.38;1.73;;;;;;;26.88;45.44;99938.34;10312070;28;20501;-65
2023/06/19 07:23:28;;;;;;;2.03;1.73;;;;;;;27.05;44.94;99943.38;10310731;28;20060;-66
2023/06/19 07:28:30;;;;;;;4.05;1.83;;;;;;;27.13;45.05;99936.34;10307885;28;20054;-64
2023/06/19 07:33:40;;;;;;;3.30;1.65;;;;;;;27.31;44.54;99945.78;10466452;27;20396;-66
2023/06/19 07:38:43;;;;;;;2.00;1.80;;;;;;;27.27;44.94;99937.31;10427323;28;20053;-65
2023/06/19 07:43:44;;;;;;;3.15;1.92;;;;;;;27.26;44.69;99945.88;10428291;28;20128;-65
2023/06/19 07:48:46;;;;;;;4.45;1.83;;;;;;;27.12;44.89;99953.22;10428240;28;20099;-64
2023/06/19 07:53:47;;;;;;;2.60;2.33;;;;;;;27.00;44.61;99962.75;10430449;28;20045;-66
2023/06/19 07:58:49;;;;;;;1.83;1.35;;;;;;;27.20;44.51;99969.94;10433588;28;20067;-66
2023/06/19 08:03:50;;;;;;;2.05;1.85;;;;;;;27.25;44.52;99975.44;10436736;28;21083;-63
2023/06/19 08:08:52;;;;;;;2.95;2.00;;;;;;;27.14;44.63;99968.34;10433911;28;20084;-65
2023/06/19 08:13:54;;;;;;;3.33;1.67;;;;;;;27.36;44.29;99981.63;10466991;28;20045;-66
2023/06/19 08:18:55;;;;;;;2.13;1.60;;;;;;;27.38;44.14;99979.38;10475885;28;20507;-65
2023/06/19 08:23:57;;;;;;;2.47;1.58;;;;;;;27.37;44.01;99985.19;10455372;28;20060;-64
2023/06/19 08:28:58;;;;;;;2.58;1.58;;;;;;;27.39;44.25;99991.22;10471102;28;20052;-66
2023/06/19 08:34:00;;;;;;;4.57;1.90;;;;;;;27.75;44.15;99982.44;10470386;28;20052;-66
2023/06/19 08:39:02;;;;;;;2.40;1.80;;;;;;;27.89;43.89;99983.34;10469526;28;20052;-64
2023/06/19 08:44:07;;;;;;;3.05;1.83;;;;;;;27.59;44.44;99993.72;10449096;28;20124;-64
2023/06/19 08:49:10;;;;;;;3.72;1.88;;;;;;;27.79;43.65;99994.53;10449029;28;20049;-65
2023/06/19 08:54:13;;;;;;;2.35;1.65;;;;;;;27.86;43.78;100006.84;10453420;28;20126;-61
2023/06/19 08:59:17;;;;;;;4.57;1.80;;;;;;;28.14;43.34;99992.34;10463913;28;20045;-64
2023/06/19 09:04:20;;;;;;;2.75;2.30;;;;;;;27.99;43.72;99994.25;10444816;28;20068;-68
2023/06/19 09:09:24;;;;;;;3.50;1.75;;;;;;;28.15;43.40;99997.56;10443473;28;20064;-69
2023/06/19 09:14:39;;;;;;;2.33;2.00;;;;;;;28.21;43.11;100001.06;10444538;28;20048;-68
2023/06/19 09:19:48;;;;;;;1.77;1.60;;;;;;;28.28;43.22;99987.69;10441838;28;20044;-66
2023/06/19 09:24:50;;;;;;;5.03;1.95;;;;;;;28.53;42.56;99993.91;10448355;28;20048;-69
2023/06/19 09:29:51;;;;;;;2.80;1.85;;;;;;;28.47;42.23;100001.44;10443987;28;20406;-70
2023/06/19 09:34:55;;;;;;;3.90;1.83;;;;;;;28.72;42.08;99993.81;10440750;28;20049;-69
2023/06/19 09:39:58;;;;;;;3.97;2.20;;;;;;;28.84;41.82;99994.13;10440931;28;20392;-69
2023/06/19 09:45:04;;;;;;;5.80;2.45;;;;;;;29.11;41.72;99996.09;10442074;28;20041;-67
2023/06/19 09:50:06;;;;;;;4.03;2.15;;;;;;;29.33;41.51;99992.59;10444788;28;20048;-69
2023/06/19 09:55:12;;;;;;;2.20;2.00;;;;;;;29.50;40.64;99996.66;10445694;28;20045;-68
2023/06/19 10:00:22;;;;;;;3.58;2.00;;;;;;;29.75;40.32;99998.84;10442577;28;20045;-67
2023/06/19 10:05:33;;;;;;;2.70;2.25;;;;;;;30.13;39.62;99975.50;10444095;28;20125;-68
2023/06/19 10:10:35;;;;;;;3.50;1.85;;;;;;;30.13;39.33;99978.25;10445291;28;20057;-66
2023/06/19 10:15:41;;;;;;;4.03;1.98;;;;;;;30.59;38.19;99977.06;10492808;28;20042;-62
2023/06/19 10:20:44;;;;;;;1.85;1.50;;;;;;;30.84;38.14;99981.09;10493244;28;20069;-64
2023/06/19 10:25:58;;;;;;;2.00;1.50;;;;;;;30.82;37.97;99986.16;10494084;28;20056;-64
2023/06/19 10:31:04;;;;;;;1.65;1.15;;;;;;;30.40;38.06;99985.66;10492853;28;20044;-64
2023/06/19 10:36:19;;;;;;;4.47;1.25;;;;;;;30.44;37.50;99995.78;10493870;28;20037;-64
2023/06/19 10:41:24;;;;;;;2.20;1.40;;;;;;;30.24;38.17;99986.00;10488044;28;20053;-65
2023/06/19 10:46:31;;;;;;;3.40;1.48;;;;;;;30.18;38.29;99981.72;10481454;28;20037;-64
2023/06/19 10:51:38;;;;;;;2.63;1.85;;;;;;;30.13;37.96;99967.19;10473588;28;20068;-66
2023/06/19 10:56:39;;;;;;;4.38;1.80;;;;;;;30.24;37.61;99974.09;10481181;28;20056;-65
2023/06/19 11:01:44;;;;;;;3.25;1.65;;;;;;;30.24;37.33;99976.88;10476449;28;20067;-64
2023/06/19 11:06:47;;;;;;;4.35;1.85;;;;;;;30.43;37.31;99973.88;10486262;28;20100;-65
2023/06/19 11:11:48;;;;;;;3.25;1.50;;;;;;;30.67;37.18;99968.00;10491131;28;20039;-64
2023/06/19 11:16:50;;;;;;;2.90;1.35;;;;;;;30.84;36.48;99983.88;10490751;28;20033;-64
2023/06/19 11:21:52;;;;;;;4.03;2.03;;;;;;;30.85;36.47;99979.97;10454882;28;20076;-67
2023/06/19 11:26:56;;;;;;;1.65;1.38;;;;;;;30.73;36.43;99963.09;10441856;28;20514;-67
2023/06/19 11:32:13;;;;;;;3.55;1.30;;;;;;;30.69;36.59;99968.47;10438110;28;20036;-67
2023/06/19 11:37:17;;;;;;;3.78;1.30;;;;;;;30.64;36.58;99963.06;10436496;28;20384;-68
2023/06/19 11:42:19;;;;;;;1.65;1.52;;;;;;;30.67;37.05;99968.00;10438665;28;20067;-68
2023/06/19 11:47:21;;;;;;;3.85;1.38;;;;;;;30.78;36.17;99969.31;10437575;28;20041;-67
2023/06/19 11:52:22;;;;;;;2.55;1.30;;;;;;;30.96;36.16;99975.75;10436973;28;20037;-66
2023/06/19 11:57:24;;;;;;;3.20;1.30;;;;;;;31.03;36.20;99976.13;10436916;28;20061;-67
2023/06/19 12:02:25;;;;;;;6.18;2.47;;;;;;;31.36;35.55;99972.09;10434146;28;20044;-68
2023/06/19 12:07:27;;;;;;;2.53;1.08;;;;;;;31.54;34.78;99973.78;10436112;28;20047;-68
2023/06/19 12:12:29;;;;;;;2.63;1.45;;;;;;;31.48;34.17;99974.25;10436982;28;20045;-68
2023/06/19 12:17:31;;;;;;;1.92;1.33;;;;;;;31.63;34.04;99955.13;10437518;28;20045;-65
2023/06/19 12:22:35;;;;;;;3.00;0.95;;;;;;;31.88;34.03;99955.47;10444623;28;20048;-67
2023/06/19 12:27:40;;;;;;;3.90;1.20;;;;;;;32.02;32.79;99955.31;10442717;28;20049;-67
2023/06/19 12:32:42;;;;;;;3.20;1.23;;;;;;;32.10;32.64;99948.91;10444057;28;20044;-68
2023/06/19 12:37:43;;;;;;;1.80;0.90;;;;;;;32.13;32.12;99958.53;10442215;28;20492;-67
2023/06/19 12:42:46;;;;;;;5.60;2.30;;;;;;;32.41;31.41;99956.19;10439516;28;20045;-67
2023/06/19 12:47:47;;;;;;;3.90;1.00;;;;;;;32.78;31.12;99945.41;10441623;28;20041;-67
2023/06/19 12:52:50;;;;;;;1.48;1.20;;;;;;;33.08;31.49;99942.59;10443791;28;20053;-68
2023/06/19 12:57:51;;;;;;;3.45;1.73;;;;;;;33.10;31.40;99957.06;10444751;28;20072;-68
2023/06/19 13:02:53;;;;;;;1.60;1.33;;;;;;;32.97;32.34;99944.97;10439272;28;20439;-67
2023/06/19 13:07:55;;;;;;;2.33;1.30;;;;;;;33.17;31.81;99948.97;10441168;28;20057;-67
2023/06/19 13:12:58;;;;;;;2.70;1.67;;;;;;;33.45;31.76;99945.66;10443214;28;20045;-68
2023/06/19 13:18:00;;;;;;;3.10;1.35;;;;;;;33.73;31.26;99941.19;10440207;28;20048;-68
2023/06/19 13:23:01;;;;;;;7.05;1.65;;;;;;;34.32;31.17;99937.31;10437384;28;20057;-68
2023/06/19 13:28:03;;;;;;;2.30;1.17;;;;;;;34.40;30.73;99921.59;10442073;28;20045;-68
2023/06/19 13:33:04;;;;;;;3.25;1.30;;;;;;;33.83;30.89;99945.53;10441737;28;20393;-67
2023/06/19 13:38:06;;;;;;;1.90;1.20;;;;;;;33.47;31.12;99960.06;10440852;28;20045;-67
2023/06/19 13:43:07;;;;;;;2.55;1.20;;;;;;;33.84;30.69;99951.91;10443518;28;20468;-67
2023/06/19 13:48:09;;;;;;;2.15;0.90;;;;;;;34.28;29.83;99938.34;10440761;28;20492;-66
2023/06/19 13:53:10;;;;;;;2.40;1.20;;;;;;;34.40;29.67;99931.97;10439675;28;20059;-67
2023/06/19 13:58:12;;;;;;;4.78;1.55;;;;;;;34.50;29.82;99923.97;10438656;28;20051;-65
2023/06/19 14:03:14;;;;;;;1.63;1.15;;;;;;;34.25;30.33;99914.72;10440752;28;20045;-65
2023/06/19 14:08:15;;;;;;;1.17;1.08;;;;;;;34.59;29.99;99912.66;10440663;28;20135;-66
2023/06/19 14:13:17;;;;;;;1.92;0.90;;;;;;;34.53;29.05;99912.06;10440346;28;20052;-65
2023/06/19 14:18:19;;;;;;;2.58;0.98;;;;;;;33.87;30.28;99914.94;10444994;28;20368;-65
2023/06/19 14:23:21;;;;;;;1.42;1.08;;;;;;;33.72;30.19;99902.47;10444491;28;20052;-65
2023/06/19 14:28:23;;;;;;;1.63;1.17;;;;;;;34.15;29.44;99896.47;10442619;28;20037;-65
2023/06/19 14:33:24;;;;;;;4.38;0.95;;;;;;;34.47;29.80;99895.91;10434833;28;20041;-66
2023/06/19 14:38:31;;;;;;;3.20;0.98;;;;;;;34.70;28.67;99907.47;10440517;28;20388;-66
2023/06/19 14:43:33;;;;;;;1.95;0.93;;;;;;;35.23;27.85;99897.16;10441695;28;20037;-66
2023/06/19 14:48:34;;;;;;;3.13;0.90;;;;;;;35.15;27.92;99892.47;10442018;28;20052;-65
2023/06/19 14:53:36;;;;;;;1.25;0.90;;;;;;;35.19;27.61;99889.81;10442131;28;20052;-65
2023/06/19 14:58:38;;;;;;;6.68;1.15;;;;;;;35.39;27.67;99900.03;10437570;28;20435;-66
2023/06/19 15:03:39;;;;;;;3.05;1.08;;;;;;;35.51;26.79;99907.56;10442664;28;20036;-65
2023/06/19 15:08:41;;;;;;;3.78;1.05;;;;;;;35.37;26.94;99898.72;10446387;28;20060;-66
2023/06/19 15:13:42;;;;;;;1.70;0.88;;;;;;;35.08;26.91;99903.47;10448621;28;20051;-65
2023/06/19 15:18:45;;;;;;;3.70;0.90;;;;;;;34.88;27.15;99897.66;10451303;28;20519;-65
2023/06/19 15:23:46;;;;;;;3.40;1.05;;;;;;;34.74;27.15;99892.44;10454825;28;20049;-64
2023/06/19 15:28:48;;;;;;;1.27;1.00;;;;;;;34.66;27.34;99893.38;10447984;28;20048;-66
2023/06/19 15:33:50;;;;;;;4.40;0.90;;;;;;;34.61;27.59;99889.97;10448093;28;20116;-65
2023/06/19 15:38:51;;;;;;;3.63;1.10;;;;;;;34.52;27.39;99890.09;10439547;28;20493;-65
2023/06/19 15:43:53;;;;;;;2.42;0.90;;;;;;;34.40;27.32;99881.72;10438457;28;20412;-65
2023/06/19 15:48:54;;;;;;;2.85;0.75;;;;;;;34.13;27.86;99867.25;10437218;28;20037;-65
2023/06/19 15:53:56;;;;;;;2.80;1.00;;;;;;;34.00;27.21;99869.19;10451722;28;20395;-65
2023/06/19 15:58:57;;;;;;;1.83;1.00;;;;;;;33.86;28.04;99863.94;10456191;28;20057;-64
2023/06/19 16:04:00;;;;;;;3.42;1.52;;;;;;;33.83;27.70;99861.03;10454184;28;20045;-65
2023/06/19 16:09:02;;;;;;;0.90;0.80;;;;;;;33.69;28.12;99852.97;10458489;28;20065;-64
2023/06/19 16:14:03;;;;;;;1.65;0.98;;;;;;;33.66;28.43;99857.28;10453144;28;20441;-65
2023/06/19 16:19:05;;;;;;;1.77;0.70;;;;;;;33.67;28.32;99850.56;10445406;28;20051;-65
2023/06/19 16:24:07;;;;;;;1.98;1.05;;;;;;;33.86;27.96;99829.66;10448622;28;20050;-66
2023/06/19 16:29:08;;;;;;;1.33;0.80;;;;;;;33.87;27.70;99829.34;10445301;28;20130;-65
2023/06/19 16:34:10;;;;;;;2.35;0.82;;;;;;;33.80;27.84;99829.06;10456011;28;20159;-65
2023/06/19 16:39:14;;;;;;;1.42;1.00;;;;;;;33.71;27.49;99823.59;10453221;28;20045;-66
2023/06/19 16:44:15;;;;;;;1.52;0.77;;;;;;;33.74;28.03;99822.09;10450903;28;20051;-65
2023/06/19 16:49:17;;;;;;;2.45;1.27;;;;;;;33.70;28.55;99827.53;10458564;28;20701;-66
2023/06/19 16:54:19;;;;;;;3.88;0.90;;;;;;;33.81;28.05;99838.25;10453053;28;20055;-66
2023/06/19 16:59:20;;;;;;;2.22;1.35;;;;;;;33.80;28.51;99839.41;10444582;28;20045;-66
2023/06/19 17:04:22;;;;;;;3.85;1.00;;;;;;;33.84;28.37;99843.16;10447853;28;20045;-66
2023/06/19 17:09:23;;;;;;;1.80;0.95;;;;;;;33.87;28.57;99839.66;10445732;28;20407;-66
2023/06/19 17:14:24;;;;;;;1.30;0.80;;;;;;;33.80;28.57;99856.16;10444054;28;20435;-66
2023/06/19 17:19:27;;;;;;;2.13;1.08;;;;;;;33.70;28.29;99847.06;10443219;28;20051;-66
2023/06/19 17:24:28;;;;;;;2.50;0.80;;;;;;;33.69;28.63;99852.97;10451191;28;20555;-66
2023/06/19 17:29:30;;;;;;;3.80;1.00;;;;;;;34.00;28.23;99854.44;10445857;28;20049;-65
2023/06/19 17:34:31;;;;;;;1.10;0.98;;;;;;;33.80;27.77;99845.81;10452090;28;20052;-65
2023/06/19 17:39:33;;;;;;;2.35;0.93;;;;;;;33.52;28.25;99853.94;10450355;28;20064;-66
2023/06/19 17:44:34;;;;;;;2.97;1.40;;;;;;;33.41;29.40;99853.53;10453106;28;20082;-66
2023/06/19 17:49:37;;;;;;;1.75;0.98;;;;;;;33.26;29.65;99846.66;10454583;28;20124;-66
2023/06/19 17:54:38;;;;;;;3.17;1.30;;;;;;;33.09;29.89;99843.97;10447834;28;20048;-65
2023/06/19 17:59:39;;;;;;;3.33;1.48;;;;;;;32.91;30.37;99846.88;10453709;28;20384;-66
2023/06/19 18:04:41;;;;;;;2.05;1.17;;;;;;;32.69;30.23;99850.81;10444782;28;20049;-67
2023/06/19 18:09:46;;;;;;;4.47;1.40;;;;;;;32.49;31.03;99854.34;10447027;28;20483;-66
2023/06/19 18:14:47;;;;;;;2.05;1.02;;;;;;;32.35;31.15;99852.59;10447343;28;20048;-66
2023/06/19 18:19:49;;;;;;;3.53;1.20;;;;;;;32.21;32.00;99843.69;10443058;28;20037;-67
2023/06/19 18:24:50;;;;;;;3.70;1.50;;;;;;;32.03;32.10;99847.66;10447375;28;20045;-67
2023/06/19 18:29:52;;;;;;;1.33;1.20;;;;;;;31.85;32.73;99855.22;10441979;28;20056;-67
2023/06/19 18:34:54;;;;;;;1.88;1.20;;;;;;;31.70;32.36;99849.03;10446756;28;20048;-66
2023/06/19 18:39:55;;;;;;;2.92;1.83;;;;;;;31.54;32.88;99851.53;10444467;28;20385;-66
2023/06/19 18:44:57;;;;;;;4.43;1.75;;;;;;;31.48;32.87;99855.63;10444212;28;20045;-66
2023/06/19 18:49:58;;;;;;;4.18;1.50;;;;;;;31.33;33.21;99856.91;10443207;28;20071;-66
2023/06/19 18:55:00;;;;;;;5.53;2.13;;;;;;;31.23;33.58;99857.22;10441978;28;20121;-67
2023/06/19 19:00:01;;;;;;;4.15;1.48;;;;;;;31.07;33.84;99856.91;10422747;28;20048;-66
2023/06/19 19:05:03;;;;;;;1.55;1.42;;;;;;;30.96;34.73;99858.34;10434983;28;20051;-67
2023/06/19 19:10:05;;;;;;;2.25;1.60;;;;;;;30.86;34.83;99855.88;10435416;28;20120;-67
2023/06/19 19:15:07;;;;;;;2.17;1.65;;;;;;;30.75;35.05;99855.38;10437487;28;20052;-67
2023/06/19 19:20:12;;;;;;;1.75;1.40;;;;;;;30.61;35.99;99850.78;10441147;28;20484;-66
2023/06/19 19:25:13;;;;;;;3.75;1.88;;;;;;;30.49;36.23;99853.34;10438340;28;20041;-66
2023/06/19 19:30:15;;;;;;;4.20;1.42;;;;;;;30.33;36.72;99855.72;10434368;28;20060;-67
2023/06/19 19:35:16;;;;;;;6.57;1.95;;;;;;;30.19;36.94;99860.53;10441928;28;20045;-67
2023/06/19 19:40:18;;;;;;;5.00;1.52;;;;;;;30.11;37.50;99864.91;10439303;28;20060;-68
2023/06/19 19:45:19;;;;;;;2.22;2.13;;;;;;;30.02;38.04;99873.19;10435472;28;20041;-68
2023/06/19 19:50:21;;;;;;;5.40;2.05;;;;;;;29.93;38.60;99879.81;10436854;28;20033;-68
2023/06/19 19:55:23;;;;;;;2.60;1.73;;;;;;;29.81;38.81;99891.47;10438407;28;20128;-66
2023/06/19 20:00:24;;;;;;;1.80;1.50;;;;;;;29.70;39.15;99896.44;10440712;28;20128;-66
2023/06/19 20:05:26;;;;;;;4.78;2.25;;;;;;;29.60;38.78;99899.44;10436381;28;20053;-67
2023/06/19 20:10:27;;;;;;;2.20;1.80;;;;;;;29.49;39.00;99895.31;10436485;28;20080;-66
2023/06/19 20:15:29;;;;;;;3.75;1.50;;;;;;;29.37;39.83;99904.19;10441242;28;20079;-66
2023/06/19 20:20:32;;;;;;;3.42;2.25;;;;;;;29.24;40.58;99906.66;10441750;28;20091;-67
2023/06/19 20:25:33;;;;;;;5.28;2.00;;;;;;;29.11;41.26;99896.44;10442487;28;20041;-67
2023/06/19 20:30:35;;;;;;;4.88;2.22;;;;;;;28.97;42.50;99901.16;10439784;28;20131;-68
2023/06/19 20:35:37;;;;;;;4.25;2.28;;;;;;;28.80;42.88;99902.63;10440597;28;20458;-67
2023/06/19 20:40:38;;;;;;;4.38;1.73;;;;;;;28.49;42.72;99905.97;10448245;28;20051;-64
2023/06/19 20:45:42;;;;;;;5.03;1.60;;;;;;;28.36;42.50;99903.19;10450902;28;20040;-66
2023/06/19 20:50:44;;;;;;;3.20;2.05;;;;;;;28.03;43.02;99889.44;10445289;28;20048;-63
2023/06/19 20:55:46;;;;;;;3.33;2.00;;;;;;;27.69;44.01;99890.56;10444231;28;20490;-64
2023/06/19 21:00:47;;;;;;;4.28;1.73;;;;;;;27.61;44.34;99882.97;10442487;28;20037;-64
2023/06/19 21:05:49;;;;;;;2.13;1.90;;;;;;;27.48;44.14;99893.63;10449683;28;20045;-64
2023/06/19 21:10:51;;;;;;;2.60;1.58;;;;;;;27.19;44.93;99898.47;10442917;28;20058;-67
2023/06/19 21:15:52;;;;;;;3.63;1.90;;;;;;;27.13;44.71;99894.16;10441300;28;20075;-66
2023/06/19 21:20:55;;;;;;;4.43;2.33;;;;;;;27.15;45.02;99891.91;10441865;28;20053;-64
2023/06/19 21:26:00;;;;;;;5.13;2.17;;;;;;;27.09;45.17;99892.00;10439662;28;20519;-66
2023/06/19 21:31:01;;;;;;;5.13;2.03;;;;;;;26.99;45.50;99897.63;10444592;28;20072;-67
2023/06/19 21:36:03;;;;;;;8.45;1.92;;;;;;;26.81;45.77;99895.69;10443440;28;20040;-66
2023/06/19 21:41:04;;;;;;;3.38;1.85;;;;;;;26.63;46.50;99897.28;10444539;28;20051;-66
2023/06/19 21:46:06;;;;;;;4.18;1.85;;;;;;;26.46;46.89;99897.72;10444975;28;20139;-65
2023/06/19 21:51:08;;;;;;;5.38;2.30;;;;;;;26.35;46.56;99887.94;10441158;28;20452;-65
2023/06/19 21:56:09;;;;;;;2.75;1.92;;;;;;;26.36;46.76;99884.88;10442716;28;20382;-67
2023/06/19 22:01:11;;;;;;;2.17;1.83;;;;;;;26.34;47.05;99880.78;10445043;28;20136;-67
2023/06/19 22:06:14;;;;;;;3.97;1.75;;;;;;;26.25;47.23;99883.34;10442677;28;20569;-66
2023/06/19 22:11:15;;;;;;;3.83;1.83;;;;;;;26.14;47.32;99879.06;10440405;28;20091;-67
2023/06/19 22:16:17;;;;;;;5.50;2.28;;;;;;;26.01;47.49;99875.88;10444072;28;20041;-67
2023/06/19 22:21:18;;;;;;;2.05;1.45;;;;;;;25.99;47.37;99880.88;10435980;28;21032;-67
2023/06/19 22:26:20;;;;;;;2.65;1.80;;;;;;;26.00;47.19;99881.69;10442981;28;20048;-66
2023/06/19 22:31:21;;;;;;;3.20;2.00;;;;;;;26.02;47.64;99883.03;10441308;28;20057;-67
2023/06/19 22:36:23;;;;;;;2.33;1.90;;;;;;;26.00;47.10;99867.91;10442146;28;20084;-67
2023/06/19 22:41:24;;;;;;;5.70;2.13;;;;;;;25.91;47.60;99865.78;10439668;28;20099;-65
2023/06/19 22:46:26;;;;;;;3.13;1.73;;;;;;;25.69;47.93;99873.66;10441500;28;20040;-65
2023/06/19 22:51:27;;;;;;;4.07;1.63;;;;;;;25.46;48.21;99869.72;10438888;28;20060;-66
2023/06/19 22:56:29;;;;;;;2.15;1.65;;;;;;;25.59;48.12;99860.78;10443494;28;20055;-65
2023/06/19 23:01:32;;;;;;;4.68;1.95;;;;;;;25.64;48.11;99852.50;10441604;28;20040;-67
2023/06/19 23:06:41;;;;;;;3.25;1.92;;;;;;;25.62;47.92;99853.91;10442754;28;20037;-67
2023/06/19 23:11:43;;;;;;;4.85;2.22;;;;;;;25.44;48.64;99839.75;10439373;28;20037;-67
2023/06/19 23:16:45;;;;;;;4.20;1.92;;;;;;;25.38;48.60;99842.81;10441028;28;20139;-65
2023/06/19 23:21:46;;;;;;;2.78;2.17;;;;;;;25.25;48.90;99842.34;10440053;28;20041;-66